sensor_id;sensor_type;location;lat;lon;timestamp;pressure;altitude;pressure_sealevel;temperature;humidity
21357;BME280;10836;53.068;18.234;2023-05-09T00:01:23;102377.19;;;1.40;100.00
21357;BME280;10836;53.068;18.234;2023-05-09T00:03:50;102373.84;;;1.38;100.00
21357;BME280;10836;53.068;18.234;2023-05-09T00:06:18;102374.47;;;1.48;100.00
21357;BME280;10836;53.068;18.234;2023-05-09T00:08:45;102373.81;;;1.46;100.00
21357;BME280;10836;53.068;18.234;2023-05-09T00:11:12;102372.16;;;1.37;100.00
21357;BME280;10836;53.068;18.234;2023-05-09T00:13:39;102372.50;;;1.33;100.00
21357;BME280;10836;53.068;18.234;2023-05-09T00:16:07;102374.22;;;1.18;100.00
21357;BME280;10836;53.068;18.234;2023-05-09T00:18:35;102371.56;;;1.10;100.00
21357;BME280;10836;53.068;18.234;2023-05-09T00:21:03;102371.03;;;1.07;100.00
21357;BME280;10836;53.068;18.234;2023-05-09T00:23:30;102376.25;;;1.16;100.00
21357;BME280;10836;53.068;18.234;2023-05-09T00:25:57;102370.88;;;1.16;100.00
21357;BME280;10836;53.068;18.234;2023-05-09T00:28:25;102366.50;;;1.07;100.00
21357;BME280;10836;53.068;18.234;2023-05-09T00:30:52;102365.84;;;1.05;100.00
21357;BME280;10836;53.068;18.234;2023-05-09T00:33:19;102365.50;;;0.92;100.00
21357;BME280;10836;53.068;18.234;2023-05-09T00:35:46;102366.19;;;0.94;100.00
21357;BME280;10836;53.068;18.234;2023-05-09T00:38:13;102364.84;;;0.98;100.00
21357;BME280;10836;53.068;18.234;2023-05-09T00:40:40;102359.63;;;0.96;100.00
21357;BME280;10836;53.068;18.234;2023-05-09T00:43:07;102359.78;;;0.95;100.00
21357;BME280;10836;53.068;18.234;2023-05-09T00:45:34;102364.16;;;0.96;100.00
21357;BME280;10836;53.068;18.234;2023-05-09T00:48:02;102364.16;;;0.96;100.00
21357;BME280;10836;53.068;18.234;2023-05-09T00:50:29;102362.69;;;0.85;100.00
21357;BME280;10836;53.068;18.234;2023-05-09T00:52:57;102356.47;;;0.69;100.00
21357;BME280;10836;53.068;18.234;2023-05-09T00:55:24;102349.06;;;0.79;100.00
21357;BME280;10836;53.068;18.234;2023-05-09T00:57:53;102354.44;;;0.71;100.00
21357;BME280;10836;53.068;18.234;2023-05-09T01:00:19;102354.75;;;0.51;100.00
21357;BME280;10836;53.068;18.234;2023-05-09T01:02:49;102348.38;;;0.52;100.00
21357;BME280;10836;53.068;18.234;2023-05-09T01:05:19;102351.75;;;0.62;100.00
21357;BME280;10836;53.068;18.234;2023-05-09T01:08:16;102343.50;;;0.48;100.00
21357;BME280;10836;53.068;18.234;2023-05-09T01:10:57;102344.69;;;0.45;100.00
21357;BME280;10836;53.068;18.234;2023-05-09T01:16:08;102333.28;;;0.35;100.00
21357;BME280;10836;53.068;18.234;2023-05-09T01:18:39;102334.63;;;0.39;100.00
21357;BME280;10836;53.068;18.234;2023-05-09T01:21:16;102333.44;;;0.42;100.00
21357;BME280;10836;53.068;18.234;2023-05-09T01:23:50;102336.47;;;0.39;100.00
21357;BME280;10836;53.068;18.234;2023-05-09T01:26:26;102343.34;;;0.41;100.00
21357;BME280;10836;53.068;18.234;2023-05-09T01:29:26;102344.00;;;0.51;100.00
21357;BME280;10836;53.068;18.234;2023-05-09T01:32:00;102344.69;;;0.45;100.00
21357;BME280;10836;53.068;18.234;2023-05-09T01:34:29;102337.63;;;0.44;100.00
21357;BME280;10836;53.068;18.234;2023-05-09T01:36:58;102345.38;;;0.39;100.00
21357;BME280;10836;53.068;18.234;2023-05-09T01:39:28;102341.00;;;0.30;100.00
21357;BME280;10836;53.068;18.234;2023-05-09T01:41:59;102341.31;;;0.27;100.00
21357;BME280;10836;53.068;18.234;2023-05-09T01:44:33;102333.94;;;0.29;100.00
21357;BME280;10836;53.068;18.234;2023-05-09T01:47:01;102336.59;;;0.21;100.00
21357;BME280;10836;53.068;18.234;2023-05-09T01:49:30;102339.63;;;0.18;100.00
21357;BME280;10836;53.068;18.234;2023-05-09T01:52:00;102335.59;;;0.14;100.00
21357;BME280;10836;53.068;18.234;2023-05-09T01:54:31;102330.25;;;0.30;100.00
21357;BME280;10836;53.068;18.234;2023-05-09T01:56:59;102322.84;;;0.32;100.00
21357;BME280;10836;53.068;18.234;2023-05-09T01:59:27;102326.19;;;0.18;100.00
21357;BME280;10836;53.068;18.234;2023-05-09T02:01:55;102325.84;;;0.21;100.00
21357;BME280;10836;53.068;18.234;2023-05-09T02:04:23;102319.66;;;0.20;100.00
21357;BME280;10836;53.068;18.234;2023-05-09T02:06:51;102323.81;;;0.07;100.00
21357;BME280;10836;53.068;18.234;2023-05-09T02:09:19;102320.78;;;0.02;100.00
21357;BME280;10836;53.068;18.234;2023-05-09T02:11:47;102326.50;;;-0.02;100.00
21357;BME280;10836;53.068;18.234;2023-05-09T02:14:14;102332.19;;;-0.13;100.00
21357;BME280;10836;53.068;18.234;2023-05-09T02:16:41;102320.44;;;-0.12;100.00
21357;BME280;10836;53.068;18.234;2023-05-09T02:19:08;102326.78;;;-0.21;100.00
21357;BME280;10836;53.068;18.234;2023-05-09T02:21:35;102319.72;;;-0.22;100.00
21357;BME280;10836;53.068;18.234;2023-05-09T02:24:03;102323.09;;;-0.20;100.00
21357;BME280;10836;53.068;18.234;2023-05-09T02:26:30;102325.41;;;-0.25;100.00
21357;BME280;10836;53.068;18.234;2023-05-09T02:28:57;102321.38;;;-0.29;100.00
21357;BME280;10836;53.068;18.234;2023-05-09T02:31:26;102317.66;;;-0.36;100.00
21357;BME280;10836;53.068;18.234;2023-05-09T02:33:55;102321.72;;;-0.24;100.00
21357;BME280;10836;53.068;18.234;2023-05-09T02:36:23;102317.34;;;-0.33;100.00
21357;BME280;10836;53.068;18.234;2023-05-09T02:38:50;102319.16;;;-0.42;100.00
21357;BME280;10836;53.068;18.234;2023-05-09T02:41:17;102321.31;;;-0.53;100.00
21357;BME280;10836;53.068;18.234;2023-05-09T02:43:46;102317.28;;;-0.49;100.00
21357;BME280;10836;53.068;18.234;2023-05-09T02:46:14;102324.34;;;-0.48;100.00
21357;BME280;10836;53.068;18.234;2023-05-09T02:48:41;102325.53;;;-0.35;100.00
21357;BME280;10836;53.068;18.234;2023-05-09T02:51:08;102323.69;;;-0.34;100.00
21357;BME280;10836;53.068;18.234;2023-05-09T02:53:35;102317.22;;;-0.65;100.00
21357;BME280;10836;53.068;18.234;2023-05-09T02:56:02;102318.16;;;-0.75;100.00
21357;BME280;10836;53.068;18.234;2023-05-09T02:58:29;102313.22;;;-0.61;100.00
21357;BME280;10836;53.068;18.234;2023-05-09T03:00:56;102316.25;;;-0.56;100.00
21357;BME280;10836;53.068;18.234;2023-05-09T03:03:23;102314.56;;;-0.57;100.00
21357;BME280;10836;53.068;18.234;2023-05-09T03:05:51;102315.53;;;-0.67;100.00
21357;BME280;10836;53.068;18.234;2023-05-09T03:08:18;102318.91;;;-0.64;100.00
21357;BME280;10836;53.068;18.234;2023-05-09T03:10:45;102319.94;;;-0.57;100.00
21357;BME280;10836;53.068;18.234;2023-05-09T03:13:13;102314.25;;;-0.54;100.00
21357;BME280;10836;53.068;18.234;2023-05-09T03:15:40;102308.69;;;-0.61;100.00
21357;BME280;10836;53.068;18.234;2023-05-09T03:18:08;102312.31;;;-0.70;100.00
21357;BME280;10836;53.068;18.234;2023-05-09T03:20:35;102311.91;;;-0.83;100.00
21357;BME280;10836;53.068;18.234;2023-05-09T03:23:02;102311.13;;;-0.76;100.00
21357;BME280;10836;53.068;18.234;2023-05-09T03:25:30;102317.91;;;-0.63;100.00
21357;BME280;10836;53.068;18.234;2023-05-09T03:27:57;102315.22;;;-0.63;100.00
21357;BME280;10836;53.068;18.234;2023-05-09T03:30:24;102320.41;;;-0.62;100.00
21357;BME280;10836;53.068;18.234;2023-05-09T03:32:53;102315.91;;;-0.61;100.00
21357;BME280;10836;53.068;18.234;2023-05-09T03:35:21;102326.66;;;-0.53;100.00
21357;BME280;10836;53.068;18.234;2023-05-09T03:37:48;102325.19;;;-0.48;100.00
21357;BME280;10836;53.068;18.234;2023-05-09T03:40:15;102323.19;;;-0.46;100.00
21357;BME280;10836;53.068;18.234;2023-05-09T03:42:48;102328.03;;;-0.41;100.00
21357;BME280;10836;53.068;18.234;2023-05-09T03:45:15;102326.78;;;-0.21;100.00
21357;BME280;10836;53.068;18.234;2023-05-09T03:47:45;102328.53;;;0.13;100.00
21357;BME280;10836;53.068;18.234;2023-05-09T03:50:12;102331.56;;;0.18;100.00
21357;BME280;10836;53.068;18.234;2023-05-09T03:52:40;102331.06;;;0.14;100.00
21357;BME280;10836;53.068;18.234;2023-05-09T03:55:07;102332.94;;;0.30;100.00
21357;BME280;10836;53.068;18.234;2023-05-09T03:57:36;102337.63;;;0.44;100.00
21357;BME280;10836;53.068;18.234;2023-05-09T04:00:03;102336.97;;;0.66;100.00
21357;BME280;10836;53.068;18.234;2023-05-09T04:02:40;102342.00;;;0.86;100.00
21357;BME280;10836;53.068;18.234;2023-05-09T04:05:15;102341.63;;;1.05;100.00
21357;BME280;10836;53.068;18.234;2023-05-09T04:07:44;102331.84;;;1.20;100.00
21357;BME280;10836;53.068;18.234;2023-05-09T04:10:11;102333.44;;;1.46;100.00
21357;BME280;10836;53.068;18.234;2023-05-09T04:12:38;102322.44;;;1.63;100.00
21357;BME280;10836;53.068;18.234;2023-05-09T04:15:06;102334.63;;;1.82;100.00
21357;BME280;10836;53.068;18.234;2023-05-09T04:17:34;102333.91;;;1.88;100.00
21357;BME280;10836;53.068;18.234;2023-05-09T04:20:01;102332.47;;;2.09;100.00
21357;BME280;10836;53.068;18.234;2023-05-09T04:22:29;102329.91;;;2.38;100.00
21357;BME280;10836;53.068;18.234;2023-05-09T04:24:56;102337.44;;;2.43;100.00
21357;BME280;10836;53.068;18.234;2023-05-09T04:27:23;102335.16;;;2.54;100.00
21357;BME280;10836;53.068;18.234;2023-05-09T04:29:51;102336.84;;;2.55;100.00
21357;BME280;10836;53.068;18.234;2023-05-09T04:32:19;102335.16;;;2.54;100.00
21357;BME280;10836;53.068;18.234;2023-05-09T04:34:48;102335.16;;;2.54;100.00
21357;BME280;10836;53.068;18.234;2023-05-09T04:37:20;102330.94;;;2.75;100.00
21357;BME280;10836;53.068;18.234;2023-05-09T04:39:47;102335.47;;;2.97;100.00
21357;BME280;10836;53.068;18.234;2023-05-09T04:42:21;102339.72;;;3.06;100.00
21357;BME280;10836;53.068;18.234;2023-05-09T04:44:47;102329.16;;;3.19;100.00
21357;BME280;10836;53.068;18.234;2023-05-09T04:47:15;102331.38;;;3.30;100.00
21357;BME280;10836;53.068;18.234;2023-05-09T04:49:42;102331.59;;;3.44;100.00
21357;BME280;10836;53.068;18.234;2023-05-09T04:52:09;102329.03;;;3.57;100.00
21357;BME280;10836;53.068;18.234;2023-05-09T04:54:36;102336.56;;;3.76;100.00
21357;BME280;10836;53.068;18.234;2023-05-09T04:57:03;102330.28;;;3.90;100.00
21357;BME280;10836;53.068;18.234;2023-05-09T04:59:46;102340.22;;;4.05;100.00
21357;BME280;10836;53.068;18.234;2023-05-09T05:02:14;102325.19;;;4.17;100.00
21357;BME280;10836;53.068;18.234;2023-05-09T05:04:42;102332.28;;;4.39;100.00
21357;BME280;10836;53.068;18.234;2023-05-09T05:07:09;102337.81;;;4.52;100.00
21357;BME280;10836;53.068;18.234;2023-05-09T05:09:37;102335.75;;;4.54;100.00
21357;BME280;10836;53.068;18.234;2023-05-09T05:12:04;102335.06;;;4.67;100.00
21357;BME280;10836;53.068;18.234;2023-05-09T05:14:36;102336.88;;;4.88;100.00
21357;BME280;10836;53.068;18.234;2023-05-09T05:17:07;102336.69;;;5.17;100.00
21357;BME280;10836;53.068;18.234;2023-05-09T05:19:34;102340.94;;;5.33;100.00
21357;BME280;10836;53.068;18.234;2023-05-09T05:22:03;102328.00;;;5.28;100.00
21357;BME280;10836;53.068;18.234;2023-05-09T05:24:31;102336.88;;;5.50;100.00
21357;BME280;10836;53.068;18.234;2023-05-09T05:26:59;102329.22;;;5.67;100.00
21357;BME280;10836;53.068;18.234;2023-05-09T05:29:26;102328.81;;;6.05;100.00
21357;BME280;10836;53.068;18.234;2023-05-09T05:31:54;102330.16;;;6.42;100.00
21357;BME280;10836;53.068;18.234;2023-05-09T05:34:21;102334.53;;;6.62;100.00
21357;BME280;10836;53.068;18.234;2023-05-09T05:36:49;102337.69;;;6.86;100.00
21357;BME280;10836;53.068;18.234;2023-05-09T05:39:16;102338.28;;;7.14;100.00
21357;BME280;10836;53.068;18.234;2023-05-09T05:41:43;102337.38;;;7.47;100.00
21357;BME280;10836;53.068;18.234;2023-05-09T05:44:10;102334.63;;;7.60;100.00
21357;BME280;10836;53.068;18.234;2023-05-09T05:46:38;102339.19;;;7.79;100.00
21357;BME280;10836;53.068;18.234;2023-05-09T05:49:05;102336.16;;;7.94;100.00
21357;BME280;10836;53.068;18.234;2023-05-09T05:51:33;102335.72;;;8.04;100.00
21357;BME280;10836;53.068;18.234;2023-05-09T05:54:01;102338.09;;;8.25;100.00
21357;BME280;10836;53.068;18.234;2023-05-09T05:56:29;102338.19;;;8.75;100.00
21357;BME280;10836;53.068;18.234;2023-05-09T05:58:56;102331.19;;;9.10;100.00
21357;BME280;10836;53.068;18.234;2023-05-09T06:01:23;102335.44;;;9.24;95.30
21357;BME280;10836;53.068;18.234;2023-05-09T06:03:50;102341.38;;;9.76;92.20
21357;BME280;10836;53.068;18.234;2023-05-09T06:06:23;102330.25;;;9.96;93.11
21357;BME280;10836;53.068;18.234;2023-05-09T06:08:50;102320.97;;;9.97;90.51
21357;BME280;10836;53.068;18.234;2023-05-09T06:11:17;102320.03;;;10.21;88.64
21357;BME280;10836;53.068;18.234;2023-05-09T06:13:44;102316.53;;;10.44;88.31
21357;BME280;10836;53.068;18.234;2023-05-09T06:16:11;102317.75;;;10.48;85.79
21357;BME280;10836;53.068;18.234;2023-05-09T06:18:48;102315.13;;;10.53;85.28
21357;BME280;10836;53.068;18.234;2023-05-09T06:21:15;102312.13;;;11.08;86.13
21357;BME280;10836;53.068;18.234;2023-05-09T06:23:42;102308.91;;;11.98;78.42
21357;BME280;10836;53.068;18.234;2023-05-09T06:26:29;102319.63;;;12.45;73.06
21357;BME280;10836;53.068;18.234;2023-05-09T06:28:56;102315.47;;;13.09;69.03
21357;BME280;10836;53.068;18.234;2023-05-09T06:31:23;102322.88;;;13.25;65.52
21357;BME280;10836;53.068;18.234;2023-05-09T06:33:52;102305.72;;;14.22;62.93
21357;BME280;10836;53.068;18.234;2023-05-09T06:36:19;102314.81;;;14.87;57.28
21357;BME280;10836;53.068;18.234;2023-05-09T06:38:46;102316.72;;;14.01;58.18
21357;BME280;10836;53.068;18.234;2023-05-09T06:41:13;102316.72;;;14.49;56.47
21357;BME280;10836;53.068;18.234;2023-05-09T06:43:40;102315.38;;;15.26;53.18
21357;BME280;10836;53.068;18.234;2023-05-09T06:46:07;102303.28;;;15.27;53.37
21357;BME280;10836;53.068;18.234;2023-05-09T06:48:34;102306.19;;;16.30;51.38
21357;BME280;10836;53.068;18.234;2023-05-09T06:51:01;102299.59;;;16.56;47.33
21357;BME280;10836;53.068;18.234;2023-05-09T06:53:28;102301.25;;;16.93;45.52
21357;BME280;10836;53.068;18.234;2023-05-09T06:55:55;102299.03;;;16.44;47.73
21357;BME280;10836;53.068;18.234;2023-05-09T06:58:22;102303.59;;;15.36;48.11
21357;BME280;10836;53.068;18.234;2023-05-09T07:00:49;102305.59;;;15.03;44.91
21357;BME280;10836;53.068;18.234;2023-05-09T07:03:17;102294.69;;;15.13;48.38
21357;BME280;10836;53.068;18.234;2023-05-09T07:05:44;102287.28;;;15.71;45.41
21357;BME280;10836;53.068;18.234;2023-05-09T07:08:11;102287.34;;;15.91;42.06
21357;BME280;10836;53.068;18.234;2023-05-09T07:10:38;102288.16;;;15.29;40.06
21357;BME280;10836;53.068;18.234;2023-05-09T07:13:05;102300.50;;;15.74;42.42
21357;BME280;10836;53.068;18.234;2023-05-09T07:15:32;102285.72;;;16.06;39.25
21357;BME280;10836;53.068;18.234;2023-05-09T07:18:07;102281.03;;;15.96;38.00
21357;BME280;10836;53.068;18.234;2023-05-09T07:20:36;102281.78;;;15.76;38.22
21357;BME280;10836;53.068;18.234;2023-05-09T07:23:03;102273.06;;;16.15;39.97
21357;BME280;10836;53.068;18.234;2023-05-09T07:25:30;102267.06;;;16.38;38.99
21357;BME280;10836;53.068;18.234;2023-05-09T07:27:57;102266.41;;;15.90;35.56
21357;BME280;10836;53.068;18.234;2023-05-09T07:30:24;102259.06;;;16.37;39.07
21357;BME280;10836;53.068;18.234;2023-05-09T07:32:51;102256.03;;;16.79;36.05
21357;BME280;10836;53.068;18.234;2023-05-09T07:35:19;102260.19;;;16.66;37.29
21357;BME280;10836;53.068;18.234;2023-05-09T07:37:46;102264.84;;;16.50;35.39
21357;BME280;10836;53.068;18.234;2023-05-09T07:40:13;102275.78;;;15.89;32.92
21357;BME280;10836;53.068;18.234;2023-05-09T07:42:40;102272.84;;;15.49;31.68
21357;BME280;10836;53.068;18.234;2023-05-09T07:45:10;102257.41;;;15.48;33.08
21357;BME280;10836;53.068;18.234;2023-05-09T07:47:38;102266.31;;;15.65;33.09
21357;BME280;10836;53.068;18.234;2023-05-09T07:50:05;102260.44;;;15.46;31.04
21357;BME280;10836;53.068;18.234;2023-05-09T07:52:32;102263.03;;;15.68;31.40
21357;BME280;10836;53.068;18.234;2023-05-09T07:54:59;102252.88;;;15.79;30.59
21357;BME280;10836;53.068;18.234;2023-05-09T07:57:26;102260.88;;;15.80;30.35
21357;BME280;10836;53.068;18.234;2023-05-09T07:59:53;102245.28;;;15.44;31.54
21357;BME280;10836;53.068;18.234;2023-05-09T08:02:20;102253.09;;;15.62;31.21
21357;BME280;10836;53.068;18.234;2023-05-09T08:04:47;102259.28;;;16.10;30.88
21357;BME280;10836;53.068;18.234;2023-05-09T08:07:14;102249.53;;;15.67;30.96
21357;BME280;10836;53.068;18.234;2023-05-09T08:09:41;102244.84;;;15.57;33.13
21357;BME280;10836;53.068;18.234;2023-05-09T08:12:08;102249.81;;;15.70;32.25
21357;BME280;10836;53.068;18.234;2023-05-09T08:14:35;102237.44;;;15.78;32.16
21357;BME280;10836;53.068;18.234;2023-05-09T08:17:02;102258.06;;;15.70;31.01
21357;BME280;10836;53.068;18.234;2023-05-09T08:19:29;102244.28;;;15.65;32.97
21357;BME280;10836;53.068;18.234;2023-05-09T08:21:56;102228.97;;;16.55;33.75
21357;BME280;10836;53.068;18.234;2023-05-09T08:24:23;102241.13;;;16.59;31.32
21357;BME280;10836;53.068;18.234;2023-05-09T08:26:50;102237.81;;;16.52;31.31
21357;BME280;10836;53.068;18.234;2023-05-09T08:29:17;102229.00;;;16.35;31.13
21357;BME280;10836;53.068;18.234;2023-05-09T08:31:43;102219.09;;;16.39;31.51
21357;BME280;10836;53.068;18.234;2023-05-09T08:34:11;102219.56;;;15.85;31.60
21357;BME280;10836;53.068;18.234;2023-05-09T08:36:37;102217.41;;;15.98;32.67
21357;BME280;10836;53.068;18.234;2023-05-09T08:39:06;102193.44;;;15.98;29.06
21357;BME280;10836;53.068;18.234;2023-05-09T08:41:35;102206.09;;;15.94;30.10
21357;BME280;10836;53.068;18.234;2023-05-09T08:44:03;102202.53;;;16.29;31.12
21357;BME280;10836;53.068;18.234;2023-05-09T08:46:35;102203.84;;;16.98;30.61
21357;BME280;10836;53.068;18.234;2023-05-09T08:49:05;102192.13;;;17.85;31.16
21357;BME280;10836;53.068;18.234;2023-05-09T08:51:34;102213.56;;;16.70;31.07
21357;BME280;10836;53.068;18.234;2023-05-09T08:54:02;102197.56;;;15.95;29.81
21357;BME280;10836;53.068;18.234;2023-05-09T08:56:30;102197.03;;;16.39;30.10
21357;BME280;10836;53.068;18.234;2023-05-09T08:58:57;102197.44;;;17.17;29.12
21357;BME280;10836;53.068;18.234;2023-05-09T09:01:24;102216.56;;;17.63;30.16
21357;BME280;10836;53.068;18.234;2023-05-09T09:03:55;102201.34;;;17.01;28.70
21357;BME280;10836;53.068;18.234;2023-05-09T09:06:22;102205.53;;;16.63;29.37
21357;BME280;10836;53.068;18.234;2023-05-09T09:08:53;102187.09;;;16.33;30.92
21357;BME280;10836;53.068;18.234;2023-05-09T09:11:21;102185.97;;;16.80;29.79
21357;BME280;10836;53.068;18.234;2023-05-09T09:13:50;102192.53;;;16.94;29.05
21357;BME280;10836;53.068;18.234;2023-05-09T09:16:19;102194.78;;;16.51;30.25
21357;BME280;10836;53.068;18.234;2023-05-09T09:18:50;102184.03;;;16.55;30.35
21357;BME280;10836;53.068;18.234;2023-05-09T09:21:18;102183.75;;;16.46;31.27
21357;BME280;10836;53.068;18.234;2023-05-09T09:23:46;102184.25;;;16.94;30.67
21357;BME280;10836;53.068;18.234;2023-05-09T09:26:15;102187.00;;;16.94;30.85
21357;BME280;10836;53.068;18.234;2023-05-09T09:28:42;102163.06;;;17.44;29.57
21357;BME280;10836;53.068;18.234;2023-05-09T09:31:22;102184.44;;;17.23;29.24
21357;BME280;10836;53.068;18.234;2023-05-09T09:33:50;102179.19;;;17.26;29.14
21357;BME280;10836;53.068;18.234;2023-05-09T09:36:27;102164.44;;;18.29;30.02
21357;BME280;10836;53.068;18.234;2023-05-09T09:38:59;102162.91;;;18.47;28.87
21357;BME280;10836;53.068;18.234;2023-05-09T09:41:33;102156.81;;;18.45;30.14
21357;BME280;10836;53.068;18.234;2023-05-09T09:44:13;102149.16;;;18.37;29.41
21357;BME280;10836;53.068;18.234;2023-05-09T09:46:47;102158.03;;;17.66;28.22
21357;BME280;10836;53.068;18.234;2023-05-09T09:49:16;102155.94;;;18.21;28.86
21357;BME280;10836;53.068;18.234;2023-05-09T09:51:44;102150.22;;;18.70;32.23
21357;BME280;10836;53.068;18.234;2023-05-09T09:54:11;102140.53;;;18.73;29.68
21357;BME280;10836;53.068;18.234;2023-05-09T09:56:46;102172.09;;;18.38;27.96
21357;BME280;10836;53.068;18.234;2023-05-09T09:59:15;102147.25;;;17.00;29.06
21357;BME280;10836;53.068;18.234;2023-05-09T10:04:27;102157.75;;;17.03;29.80
21357;BME280;10836;53.068;18.234;2023-05-09T10:07:02;102149.25;;;17.49;30.08
21357;BME280;10836;53.068;18.234;2023-05-09T10:09:32;102111.91;;;17.12;29.68
21357;BME280;10836;53.068;18.234;2023-05-09T10:12:02;102138.34;;;17.23;29.37
21357;BME280;10836;53.068;18.234;2023-05-09T10:14:31;102123.25;;;17.01;29.67
21357;BME280;10836;53.068;18.234;2023-05-09T10:17:02;102132.84;;;17.18;28.97
21357;BME280;10836;53.068;18.234;2023-05-09T10:19:31;102105.03;;;17.93;29.96
21357;BME280;10836;53.068;18.234;2023-05-09T10:22:02;102110.91;;;17.86;30.32
21357;BME280;10836;53.068;18.234;2023-05-09T10:27:08;102101.94;;;17.60;28.98
21357;BME280;10836;53.068;18.234;2023-05-09T10:29:39;102107.56;;;17.89;30.12
21357;BME280;10836;53.068;18.234;2023-05-09T10:32:15;102099.25;;;17.89;29.78
21357;BME280;10836;53.068;18.234;2023-05-09T10:34:46;102090.66;;;18.25;27.71
21357;BME280;10836;53.068;18.234;2023-05-09T10:37:14;102086.81;;;18.74;28.67
21357;BME280;10836;53.068;18.234;2023-05-09T10:39:41;102080.16;;;18.22;28.58
21357;BME280;10836;53.068;18.234;2023-05-09T10:42:09;102075.41;;;17.65;28.90
21357;BME280;10836;53.068;18.234;2023-05-09T10:44:38;102087.63;;;17.92;30.71
21357;BME280;10836;53.068;18.234;2023-05-09T10:47:05;102088.78;;;17.86;31.26
21357;BME280;10836;53.068;18.234;2023-05-09T10:49:33;102083.25;;;17.86;29.10
21357;BME280;10836;53.068;18.234;2023-05-09T10:52:03;102089.41;;;18.12;29.53
21357;BME280;10836;53.068;18.234;2023-05-09T10:54:30;102074.09;;;18.73;28.94
21357;BME280;10836;53.068;18.234;2023-05-09T10:56:59;102074.81;;;18.59;29.00
21357;BME280;10836;53.068;18.234;2023-05-09T10:59:42;102063.97;;;17.81;29.42
21357;BME280;10836;53.068;18.234;2023-05-09T11:02:13;102060.78;;;17.64;29.64
21357;BME280;10836;53.068;18.234;2023-05-09T11:04:40;102044.97;;;18.04;30.08
21357;BME280;10836;53.068;18.234;2023-05-09T11:07:26;102052.38;;;18.37;28.83
21357;BME280;10836;53.068;18.234;2023-05-09T11:10:15;102045.00;;;18.99;29.53
21357;BME280;10836;53.068;18.234;2023-05-09T11:12:57;102046.16;;;18.21;29.65
21357;BME280;10836;53.068;18.234;2023-05-09T11:15:25;102046.84;;;18.37;28.41
21357;BME280;10836;53.068;18.234;2023-05-09T11:18:09;102034.91;;;18.42;27.75
21357;BME280;10836;53.068;18.234;2023-05-09T11:20:44;102039.34;;;18.38;29.10
21357;BME280;10836;53.068;18.234;2023-05-09T11:23:14;102028.41;;;18.04;28.54
21357;BME280;10836;53.068;18.234;2023-05-09T11:25:47;102028.44;;;19.13;29.52
21357;BME280;10836;53.068;18.234;2023-05-09T11:28:31;102028.75;;;18.21;28.93
21357;BME280;10836;53.068;18.234;2023-05-09T11:31:13;102014.34;;;17.71;28.53
21357;BME280;10836;53.068;18.234;2023-05-09T11:33:42;102017.41;;;17.31;28.27
21357;BME280;10836;53.068;18.234;2023-05-09T11:38:46;102014.69;;;17.59;28.71
21357;BME280;10836;53.068;18.234;2023-05-09T11:41:14;102004.63;;;18.03;27.52
21357;BME280;10836;53.068;18.234;2023-05-09T11:43:42;102005.66;;;18.36;30.38
21357;BME280;10836;53.068;18.234;2023-05-09T11:46:10;102010.41;;;19.15;27.05
21357;BME280;10836;53.068;18.234;2023-05-09T11:48:39;102012.38;;;19.34;28.79
21357;BME280;10836;53.068;18.234;2023-05-09T11:51:15;101996.94;;;19.46;26.96
21357;BME280;10836;53.068;18.234;2023-05-09T11:53:44;102000.25;;;18.92;26.83
21357;BME280;10836;53.068;18.234;2023-05-09T11:56:13;101989.06;;;19.53;28.70
21357;BME280;10836;53.068;18.234;2023-05-09T11:58:40;102000.41;;;18.58;28.39
21357;BME280;10836;53.068;18.234;2023-05-09T12:01:09;101993.34;;;18.23;28.24
21357;BME280;10836;53.068;18.234;2023-05-09T12:03:42;101977.16;;;18.35;27.55
21357;BME280;10836;53.068;18.234;2023-05-09T12:06:17;101965.94;;;18.50;27.68
21357;BME280;10836;53.068;18.234;2023-05-09T12:08:45;101974.41;;;18.35;28.66
21357;BME280;10836;53.068;18.234;2023-05-09T12:11:13;101966.88;;;18.41;27.66
21357;BME280;10836;53.068;18.234;2023-05-09T12:13:48;101971.03;;;17.90;28.53
21357;BME280;10836;53.068;18.234;2023-05-09T12:16:16;101969.13;;;18.15;26.93
21357;BME280;10836;53.068;18.234;2023-05-09T12:18:48;101960.63;;;18.30;28.50
21357;BME280;10836;53.068;18.234;2023-05-09T12:21:16;101968.03;;;18.35;27.23
21357;BME280;10836;53.068;18.234;2023-05-09T12:23:45;101968.50;;;18.66;27.42
21357;BME280;10836;53.068;18.234;2023-05-09T12:26:15;101951.09;;;18.84;27.10
21357;BME280;10836;53.068;18.234;2023-05-09T12:28:43;101955.06;;;18.78;27.95
21357;BME280;10836;53.068;18.234;2023-05-09T12:31:10;101945.03;;;17.91;28.09
21357;BME280;10836;53.068;18.234;2023-05-09T12:33:38;101940.94;;;18.13;27.31
21357;BME280;10836;53.068;18.234;2023-05-09T12:38:32;101930.56;;;18.47;26.76
21357;BME280;10836;53.068;18.234;2023-05-09T12:41:07;101930.28;;;18.68;28.69
21357;BME280;10836;53.068;18.234;2023-05-09T12:43:54;101926.47;;;18.64;28.04
21357;BME280;10836;53.068;18.234;2023-05-09T12:46:21;101918.31;;;18.11;29.12
21357;BME280;10836;53.068;18.234;2023-05-09T12:48:49;101915.00;;;18.09;28.16
21357;BME280;10836;53.068;18.234;2023-05-09T12:51:19;101916.97;;;18.27;30.06
21357;BME280;10836;53.068;18.234;2023-05-09T12:53:47;101912.97;;;18.81;27.77
21357;BME280;10836;53.068;18.234;2023-05-09T12:56:17;101911.97;;;18.72;27.16
21357;BME280;10836;53.068;18.234;2023-05-09T12:58:48;101920.28;;;19.42;30.47
21357;BME280;10836;53.068;18.234;2023-05-09T13:01:17;101920.97;;;19.01;28.00